Main page
METAR-TAF:

METAR-TAF

Airports :

Timișoara Traian Vuia International Airport

Timişoara, Romania

latitude: 45-46N, longitude: 021-15E, elevation: 86 m

Current weather observation

The report was made 10 minutes ago, at 21:30 UTC
Wind 4 kt from the East
Temperature 3°C
Humidity 93%
Pressure 1025 hPa
Visibility 10 km or more
no clouds below 1500 m and no cumulonimbus

METAR: LRTR 282130Z 09004KT CAVOK 03/02 Q1025

Time: 00:40 (21:40 UTC)

Forecast

The report was made 4 hours and 40 minutes ago, at 17:00 UTC
Forecast valid from 28 at 18 UTC to 29 at 18 UTC
Wind 5 kt from the Northeast
Visibility 10 km or more
no clouds below 1500 m and no cumulonimbus
Temporary
from 29 at 04 UTC to 29 at 09 UTC
Wind 10 kt from the East/Southeast

TAF: LRTR 281700Z 2818/2918 04005KT CAVOK TEMPO 2904/2909 11010KT

Weather observations and forecasts of more than 4000 airports (METAR and TAF reports).

The available stations are represented by yellow and red dots on the map.

Hover mouse over dot to see the name of the station.

Then click to see weather observations and forecasts.

To change the map : click on the green buttons with a black cross to zoom in, on the green button with a dash to zoom out, or on the green arrows for adjacent maps.


METAR-TAF: